sensor_id;sensor_type;location;lat;lon;timestamp;P1;durP1;ratioP1;P2;durP2;ratioP2
6406;SDS011;3236;51.022;6.818;2022-12-17T00:00:19;105.68;;;27.42;;
6406;SDS011;3236;51.022;6.818;2022-12-17T00:03:03;98.22;;;27.15;;
6406;SDS011;3236;51.022;6.818;2022-12-17T00:05:48;93.65;;;28.13;;
6406;SDS011;3236;51.022;6.818;2022-12-17T00:08:35;87.20;;;26.42;;
6406;SDS011;3236;51.022;6.818;2022-12-17T00:11:20;101.70;;;26.13;;
6406;SDS011;3236;51.022;6.818;2022-12-17T00:14:06;105.40;;;28.00;;
6406;SDS011;3236;51.022;6.818;2022-12-17T00:16:51;90.70;;;26.40;;
6406;SDS011;3236;51.022;6.818;2022-12-17T00:19:36;95.68;;;28.17;;
6406;SDS011;3236;51.022;6.818;2022-12-17T00:22:36;95.93;;;25.42;;
6406;SDS011;3236;51.022;6.818;2022-12-17T00:25:20;93.75;;;26.55;;
6406;SDS011;3236;51.022;6.818;2022-12-17T00:28:07;93.47;;;30.77;;
6406;SDS011;3236;51.022;6.818;2022-12-17T00:30:54;102.30;;;26.80;;
6406;SDS011;3236;51.022;6.818;2022-12-17T00:33:39;101.10;;;27.35;;
6406;SDS011;3236;51.022;6.818;2022-12-17T00:36:24;94.05;;;26.33;;
6406;SDS011;3236;51.022;6.818;2022-12-17T00:39:11;68.60;;;21.75;;
6406;SDS011;3236;51.022;6.818;2022-12-17T00:42:01;80.22;;;22.80;;
6406;SDS011;3236;51.022;6.818;2022-12-17T00:44:45;101.55;;;28.30;;
6406;SDS011;3236;51.022;6.818;2022-12-17T00:47:34;106.28;;;27.98;;
6406;SDS011;3236;51.022;6.818;2022-12-17T00:50:19;80.53;;;26.00;;
6406;SDS011;3236;51.022;6.818;2022-12-17T00:53:05;83.15;;;25.48;;
6406;SDS011;3236;51.022;6.818;2022-12-17T00:55:50;55.85;;;18.33;;
6406;SDS011;3236;51.022;6.818;2022-12-17T00:58:34;89.40;;;27.42;;
6406;SDS011;3236;51.022;6.818;2022-12-17T01:01:19;73.75;;;21.25;;
6406;SDS011;3236;51.022;6.818;2022-12-17T01:04:05;71.68;;;24.75;;
6406;SDS011;3236;51.022;6.818;2022-12-17T01:06:57;78.32;;;24.20;;
6406;SDS011;3236;51.022;6.818;2022-12-17T01:09:45;82.53;;;22.85;;
6406;SDS011;3236;51.022;6.818;2022-12-17T01:12:29;79.90;;;25.35;;
6406;SDS011;3236;51.022;6.818;2022-12-17T01:15:20;81.38;;;25.10;;
6406;SDS011;3236;51.022;6.818;2022-12-17T01:18:08;90.43;;;25.52;;
6406;SDS011;3236;51.022;6.818;2022-12-17T01:20:56;91.72;;;26.42;;
6406;SDS011;3236;51.022;6.818;2022-12-17T01:23:40;73.93;;;23.17;;
6406;SDS011;3236;51.022;6.818;2022-12-17T01:26:28;82.82;;;22.10;;
6406;SDS011;3236;51.022;6.818;2022-12-17T01:29:11;70.32;;;20.27;;
6406;SDS011;3236;51.022;6.818;2022-12-17T01:31:56;77.55;;;22.05;;
6406;SDS011;3236;51.022;6.818;2022-12-17T01:34:41;87.85;;;24.42;;
6406;SDS011;3236;51.022;6.818;2022-12-17T01:37:27;74.43;;;23.70;;
6406;SDS011;3236;51.022;6.818;2022-12-17T01:40:12;61.65;;;20.25;;
6406;SDS011;3236;51.022;6.818;2022-12-17T01:42:57;76.95;;;23.63;;
6406;SDS011;3236;51.022;6.818;2022-12-17T01:45:42;74.65;;;23.35;;
6406;SDS011;3236;51.022;6.818;2022-12-17T01:48:28;82.28;;;24.15;;
6406;SDS011;3236;51.022;6.818;2022-12-17T01:51:16;80.75;;;24.23;;
6406;SDS011;3236;51.022;6.818;2022-12-17T01:54:03;73.70;;;22.45;;
6406;SDS011;3236;51.022;6.818;2022-12-17T01:56:49;75.22;;;23.13;;
6406;SDS011;3236;51.022;6.818;2022-12-17T01:59:35;77.38;;;26.00;;
6406;SDS011;3236;51.022;6.818;2022-12-17T02:02:25;75.72;;;23.17;;
6406;SDS011;3236;51.022;6.818;2022-12-17T02:05:10;77.13;;;24.63;;
6406;SDS011;3236;51.022;6.818;2022-12-17T02:07:57;72.90;;;23.30;;
6406;SDS011;3236;51.022;6.818;2022-12-17T02:10:51;85.63;;;22.83;;
6406;SDS011;3236;51.022;6.818;2022-12-17T02:13:44;78.10;;;24.90;;
6406;SDS011;3236;51.022;6.818;2022-12-17T02:19:25;72.90;;;21.48;;
6406;SDS011;3236;51.022;6.818;2022-12-17T02:22:23;44.20;;;15.25;;
6406;SDS011;3236;51.022;6.818;2022-12-17T02:25:19;70.78;;;20.80;;
6406;SDS011;3236;51.022;6.818;2022-12-17T02:28:10;82.82;;;22.60;;
6406;SDS011;3236;51.022;6.818;2022-12-17T02:30:54;92.15;;;25.02;;
6406;SDS011;3236;51.022;6.818;2022-12-17T02:33:42;89.72;;;24.50;;
6406;SDS011;3236;51.022;6.818;2022-12-17T02:36:28;81.25;;;24.98;;
6406;SDS011;3236;51.022;6.818;2022-12-17T02:39:13;90.57;;;26.42;;
6406;SDS011;3236;51.022;6.818;2022-12-17T02:41:58;94.72;;;26.63;;
6406;SDS011;3236;51.022;6.818;2022-12-17T02:44:47;83.45;;;23.17;;
6406;SDS011;3236;51.022;6.818;2022-12-17T02:47:31;75.57;;;22.90;;
6406;SDS011;3236;51.022;6.818;2022-12-17T02:50:17;76.20;;;24.35;;
6406;SDS011;3236;51.022;6.818;2022-12-17T02:52:58;66.35;;;22.10;;
6406;SDS011;3236;51.022;6.818;2022-12-17T02:55:45;78.72;;;24.70;;
6406;SDS011;3236;51.022;6.818;2022-12-17T02:58:30;61.47;;;22.35;;
6406;SDS011;3236;51.022;6.818;2022-12-17T03:01:16;73.55;;;24.95;;
6406;SDS011;3236;51.022;6.818;2022-12-17T03:04:00;67.63;;;21.90;;
6406;SDS011;3236;51.022;6.818;2022-12-17T03:06:45;75.75;;;21.75;;
6406;SDS011;3236;51.022;6.818;2022-12-17T03:09:29;69.68;;;22.65;;
6406;SDS011;3236;51.022;6.818;2022-12-17T03:12:14;72.10;;;23.15;;
6406;SDS011;3236;51.022;6.818;2022-12-17T03:15:02;62.30;;;21.35;;
6406;SDS011;3236;51.022;6.818;2022-12-17T03:17:55;73.10;;;21.60;;
6406;SDS011;3236;51.022;6.818;2022-12-17T03:20:39;69.75;;;21.13;;
6406;SDS011;3236;51.022;6.818;2022-12-17T03:23:28;58.08;;;19.55;;
6406;SDS011;3236;51.022;6.818;2022-12-17T03:26:12;73.50;;;22.58;;
6406;SDS011;3236;51.022;6.818;2022-12-17T03:28:57;62.10;;;21.65;;
6406;SDS011;3236;51.022;6.818;2022-12-17T03:31:41;61.35;;;19.38;;
6406;SDS011;3236;51.022;6.818;2022-12-17T03:34:38;64.63;;;20.23;;
6406;SDS011;3236;51.022;6.818;2022-12-17T03:37:24;61.78;;;21.55;;
6406;SDS011;3236;51.022;6.818;2022-12-17T03:40:20;65.18;;;20.27;;
6406;SDS011;3236;51.022;6.818;2022-12-17T03:43:08;60.15;;;20.52;;
6406;SDS011;3236;51.022;6.818;2022-12-17T03:46:08;60.58;;;21.23;;
6406;SDS011;3236;51.022;6.818;2022-12-17T03:48:56;63.90;;;21.38;;
6406;SDS011;3236;51.022;6.818;2022-12-17T03:51:41;67.03;;;21.38;;
6406;SDS011;3236;51.022;6.818;2022-12-17T03:54:25;65.60;;;20.98;;
6406;SDS011;3236;51.022;6.818;2022-12-17T03:57:10;72.28;;;22.42;;
6406;SDS011;3236;51.022;6.818;2022-12-17T03:59:54;69.65;;;19.65;;
6406;SDS011;3236;51.022;6.818;2022-12-17T04:02:40;68.40;;;21.13;;
6406;SDS011;3236;51.022;6.818;2022-12-17T04:05:24;62.20;;;19.17;;
6406;SDS011;3236;51.022;6.818;2022-12-17T04:08:15;59.67;;;20.83;;
6406;SDS011;3236;51.022;6.818;2022-12-17T04:10:59;58.45;;;18.73;;
6406;SDS011;3236;51.022;6.818;2022-12-17T04:13:43;65.13;;;19.77;;
6406;SDS011;3236;51.022;6.818;2022-12-17T04:16:28;70.55;;;22.80;;
6406;SDS011;3236;51.022;6.818;2022-12-17T04:19:12;77.97;;;20.38;;
6406;SDS011;3236;51.022;6.818;2022-12-17T04:21:57;67.43;;;20.58;;
6406;SDS011;3236;51.022;6.818;2022-12-17T04:24:43;59.35;;;21.15;;
6406;SDS011;3236;51.022;6.818;2022-12-17T04:27:30;68.60;;;21.17;;
6406;SDS011;3236;51.022;6.818;2022-12-17T04:30:15;65.18;;;22.55;;
6406;SDS011;3236;51.022;6.818;2022-12-17T04:32:59;51.42;;;19.45;;
6406;SDS011;3236;51.022;6.818;2022-12-17T04:35:44;57.53;;;18.63;;
6406;SDS011;3236;51.022;6.818;2022-12-17T04:38:28;56.65;;;20.30;;
6406;SDS011;3236;51.022;6.818;2022-12-17T04:41:14;68.43;;;21.00;;
6406;SDS011;3236;51.022;6.818;2022-12-17T04:43:59;49.33;;;17.08;;
6406;SDS011;3236;51.022;6.818;2022-12-17T04:46:44;56.78;;;19.75;;
6406;SDS011;3236;51.022;6.818;2022-12-17T04:49:28;59.03;;;18.58;;
6406;SDS011;3236;51.022;6.818;2022-12-17T04:52:13;48.92;;;17.17;;
6406;SDS011;3236;51.022;6.818;2022-12-17T04:54:58;71.25;;;24.05;;
6406;SDS011;3236;51.022;6.818;2022-12-17T04:57:44;68.78;;;21.98;;
6406;SDS011;3236;51.022;6.818;2022-12-17T05:00:29;60.28;;;20.33;;
6406;SDS011;3236;51.022;6.818;2022-12-17T05:03:14;60.63;;;19.90;;
6406;SDS011;3236;51.022;6.818;2022-12-17T05:05:59;63.78;;;20.42;;
6406;SDS011;3236;51.022;6.818;2022-12-17T05:08:44;73.90;;;19.73;;
6406;SDS011;3236;51.022;6.818;2022-12-17T05:11:29;73.10;;;21.45;;
6406;SDS011;3236;51.022;6.818;2022-12-17T05:14:16;60.53;;;20.35;;
6406;SDS011;3236;51.022;6.818;2022-12-17T05:17:02;55.40;;;18.77;;
6406;SDS011;3236;51.022;6.818;2022-12-17T05:19:47;64.82;;;19.23;;
6406;SDS011;3236;51.022;6.818;2022-12-17T05:22:31;65.63;;;21.10;;
6406;SDS011;3236;51.022;6.818;2022-12-17T05:25:17;65.43;;;19.70;;
6406;SDS011;3236;51.022;6.818;2022-12-17T05:28:01;70.68;;;19.15;;
6406;SDS011;3236;51.022;6.818;2022-12-17T05:30:51;67.93;;;19.77;;
6406;SDS011;3236;51.022;6.818;2022-12-17T05:33:36;73.13;;;20.65;;
6406;SDS011;3236;51.022;6.818;2022-12-17T05:36:21;62.13;;;19.27;;
6406;SDS011;3236;51.022;6.818;2022-12-17T05:39:05;65.00;;;17.30;;
6406;SDS011;3236;51.022;6.818;2022-12-17T05:41:50;71.65;;;19.95;;
6406;SDS011;3236;51.022;6.818;2022-12-17T05:44:35;57.38;;;17.42;;
6406;SDS011;3236;51.022;6.818;2022-12-17T05:47:21;57.70;;;16.33;;
6406;SDS011;3236;51.022;6.818;2022-12-17T05:50:06;57.00;;;18.30;;
6406;SDS011;3236;51.022;6.818;2022-12-17T05:52:51;65.60;;;20.50;;
6406;SDS011;3236;51.022;6.818;2022-12-17T05:55:36;65.28;;;16.63;;
6406;SDS011;3236;51.022;6.818;2022-12-17T05:58:20;59.25;;;17.33;;
6406;SDS011;3236;51.022;6.818;2022-12-17T06:01:05;51.17;;;16.52;;
6406;SDS011;3236;51.022;6.818;2022-12-17T06:03:51;60.50;;;18.80;;
6406;SDS011;3236;51.022;6.818;2022-12-17T06:06:35;60.80;;;20.00;;
6406;SDS011;3236;51.022;6.818;2022-12-17T06:09:16;56.60;;;18.52;;
6406;SDS011;3236;51.022;6.818;2022-12-17T06:12:02;63.60;;;19.05;;
6406;SDS011;3236;51.022;6.818;2022-12-17T06:14:46;56.28;;;17.42;;
6406;SDS011;3236;51.022;6.818;2022-12-17T06:17:31;55.88;;;16.83;;
6406;SDS011;3236;51.022;6.818;2022-12-17T06:20:17;53.88;;;16.25;;
6406;SDS011;3236;51.022;6.818;2022-12-17T06:23:03;60.90;;;20.42;;
6406;SDS011;3236;51.022;6.818;2022-12-17T06:25:50;44.92;;;13.85;;
6406;SDS011;3236;51.022;6.818;2022-12-17T06:28:35;60.05;;;16.17;;
6406;SDS011;3236;51.022;6.818;2022-12-17T06:31:23;51.20;;;16.73;;
6406;SDS011;3236;51.022;6.818;2022-12-17T06:34:07;64.38;;;19.38;;
6406;SDS011;3236;51.022;6.818;2022-12-17T06:36:54;69.15;;;18.65;;
6406;SDS011;3236;51.022;6.818;2022-12-17T06:39:44;59.65;;;18.50;;
6406;SDS011;3236;51.022;6.818;2022-12-17T06:42:29;63.22;;;18.65;;
6406;SDS011;3236;51.022;6.818;2022-12-17T06:45:14;57.42;;;17.88;;
6406;SDS011;3236;51.022;6.818;2022-12-17T06:48:01;53.47;;;16.98;;
6406;SDS011;3236;51.022;6.818;2022-12-17T06:53:37;50.85;;;17.10;;
6406;SDS011;3236;51.022;6.818;2022-12-17T06:56:22;62.78;;;19.02;;
6406;SDS011;3236;51.022;6.818;2022-12-17T06:59:06;62.30;;;17.08;;
6406;SDS011;3236;51.022;6.818;2022-12-17T07:01:57;50.40;;;17.33;;
6406;SDS011;3236;51.022;6.818;2022-12-17T07:04:42;62.40;;;19.35;;
6406;SDS011;3236;51.022;6.818;2022-12-17T07:07:30;62.15;;;19.25;;
6406;SDS011;3236;51.022;6.818;2022-12-17T07:10:16;55.72;;;17.42;;
6406;SDS011;3236;51.022;6.818;2022-12-17T07:13:04;55.15;;;17.83;;
6406;SDS011;3236;51.022;6.818;2022-12-17T07:15:48;51.33;;;18.67;;
6406;SDS011;3236;51.022;6.818;2022-12-17T07:18:34;68.80;;;17.73;;
6406;SDS011;3236;51.022;6.818;2022-12-17T07:21:18;58.92;;;18.00;;
6406;SDS011;3236;51.022;6.818;2022-12-17T07:24:05;52.05;;;18.38;;
6406;SDS011;3236;51.022;6.818;2022-12-17T07:26:51;64.10;;;17.98;;
6406;SDS011;3236;51.022;6.818;2022-12-17T07:29:37;57.20;;;17.55;;
6406;SDS011;3236;51.022;6.818;2022-12-17T07:32:23;58.65;;;19.00;;
6406;SDS011;3236;51.022;6.818;2022-12-17T07:35:08;62.50;;;19.42;;
6406;SDS011;3236;51.022;6.818;2022-12-17T07:37:59;72.20;;;20.10;;
6406;SDS011;3236;51.022;6.818;2022-12-17T07:40:45;49.42;;;16.48;;
6406;SDS011;3236;51.022;6.818;2022-12-17T07:43:31;50.10;;;19.33;;
6406;SDS011;3236;51.022;6.818;2022-12-17T07:46:16;60.90;;;18.88;;
6406;SDS011;3236;51.022;6.818;2022-12-17T07:49:00;56.53;;;17.58;;
6406;SDS011;3236;51.022;6.818;2022-12-17T07:51:45;46.85;;;15.18;;
6406;SDS011;3236;51.022;6.818;2022-12-17T07:54:30;48.67;;;14.98;;
6406;SDS011;3236;51.022;6.818;2022-12-17T07:57:14;43.15;;;16.48;;
6406;SDS011;3236;51.022;6.818;2022-12-17T08:00:00;54.20;;;15.77;;
6406;SDS011;3236;51.022;6.818;2022-12-17T08:02:45;61.90;;;18.30;;
6406;SDS011;3236;51.022;6.818;2022-12-17T08:05:30;58.38;;;18.27;;
6406;SDS011;3236;51.022;6.818;2022-12-17T08:08:14;52.95;;;17.67;;
6406;SDS011;3236;51.022;6.818;2022-12-17T08:10:59;60.55;;;16.35;;
6406;SDS011;3236;51.022;6.818;2022-12-17T08:13:44;48.05;;;14.93;;
6406;SDS011;3236;51.022;6.818;2022-12-17T08:16:30;53.55;;;15.98;;
6406;SDS011;3236;51.022;6.818;2022-12-17T08:19:14;46.53;;;15.38;;
6406;SDS011;3236;51.022;6.818;2022-12-17T08:21:59;43.83;;;13.68;;
6406;SDS011;3236;51.022;6.818;2022-12-17T08:24:43;44.88;;;14.25;;
6406;SDS011;3236;51.022;6.818;2022-12-17T08:27:28;47.53;;;15.52;;
6406;SDS011;3236;51.022;6.818;2022-12-17T08:30:21;44.90;;;15.60;;
6406;SDS011;3236;51.022;6.818;2022-12-17T08:33:06;40.50;;;14.20;;
6406;SDS011;3236;51.022;6.818;2022-12-17T08:35:51;45.78;;;15.00;;
6406;SDS011;3236;51.022;6.818;2022-12-17T08:38:36;33.17;;;11.95;;
6406;SDS011;3236;51.022;6.818;2022-12-17T08:41:21;49.30;;;16.67;;
6406;SDS011;3236;51.022;6.818;2022-12-17T08:44:06;41.58;;;14.05;;
6406;SDS011;3236;51.022;6.818;2022-12-17T08:46:50;44.58;;;13.75;;
6406;SDS011;3236;51.022;6.818;2022-12-17T08:49:36;33.17;;;11.57;;
6406;SDS011;3236;51.022;6.818;2022-12-17T08:52:27;49.00;;;14.75;;
6406;SDS011;3236;51.022;6.818;2022-12-17T08:55:11;52.50;;;15.10;;
6406;SDS011;3236;51.022;6.818;2022-12-17T08:57:57;54.88;;;18.98;;
6406;SDS011;3236;51.022;6.818;2022-12-17T09:00:47;40.10;;;13.20;;
6406;SDS011;3236;51.022;6.818;2022-12-17T09:03:34;46.75;;;14.57;;
6406;SDS011;3236;51.022;6.818;2022-12-17T09:06:20;42.03;;;13.38;;
6406;SDS011;3236;51.022;6.818;2022-12-17T09:09:05;48.22;;;13.85;;
6406;SDS011;3236;51.022;6.818;2022-12-17T09:11:50;48.40;;;14.98;;
6406;SDS011;3236;51.022;6.818;2022-12-17T09:14:44;44.13;;;14.70;;
6406;SDS011;3236;51.022;6.818;2022-12-17T09:17:29;39.90;;;15.95;;
6406;SDS011;3236;51.022;6.818;2022-12-17T09:20:15;52.97;;;14.65;;
6406;SDS011;3236;51.022;6.818;2022-12-17T09:23:01;52.15;;;17.15;;
6406;SDS011;3236;51.022;6.818;2022-12-17T09:25:50;47.30;;;15.65;;
6406;SDS011;3236;51.022;6.818;2022-12-17T09:28:35;46.45;;;15.57;;
6406;SDS011;3236;51.022;6.818;2022-12-17T09:31:20;50.33;;;15.77;;
6406;SDS011;3236;51.022;6.818;2022-12-17T09:34:04;47.97;;;15.18;;
6406;SDS011;3236;51.022;6.818;2022-12-17T09:36:48;40.28;;;15.07;;
6406;SDS011;3236;51.022;6.818;2022-12-17T09:39:40;46.33;;;14.57;;
6406;SDS011;3236;51.022;6.818;2022-12-17T09:42:26;39.50;;;15.35;;
6406;SDS011;3236;51.022;6.818;2022-12-17T09:45:18;50.67;;;15.73;;
6406;SDS011;3236;51.022;6.818;2022-12-17T09:48:10;42.72;;;15.20;;
6406;SDS011;3236;51.022;6.818;2022-12-17T09:51:03;36.30;;;13.55;;
6406;SDS011;3236;51.022;6.818;2022-12-17T09:53:48;39.55;;;14.18;;
6406;SDS011;3236;51.022;6.818;2022-12-17T09:56:37;35.95;;;13.75;;
6406;SDS011;3236;51.022;6.818;2022-12-17T09:59:27;47.65;;;17.35;;
6406;SDS011;3236;51.022;6.818;2022-12-17T10:02:17;43.15;;;17.70;;
6406;SDS011;3236;51.022;6.818;2022-12-17T10:05:04;37.33;;;14.02;;
6406;SDS011;3236;51.022;6.818;2022-12-17T10:07:55;35.17;;;15.13;;
6406;SDS011;3236;51.022;6.818;2022-12-17T10:10:42;38.25;;;14.30;;
6406;SDS011;3236;51.022;6.818;2022-12-17T10:13:30;33.03;;;14.43;;
6406;SDS011;3236;51.022;6.818;2022-12-17T10:16:16;31.45;;;13.10;;
6406;SDS011;3236;51.022;6.818;2022-12-17T10:19:03;18.85;;;8.98;;
6406;SDS011;3236;51.022;6.818;2022-12-17T10:21:49;32.03;;;12.88;;
6406;SDS011;3236;51.022;6.818;2022-12-17T10:24:42;24.40;;;12.55;;
6406;SDS011;3236;51.022;6.818;2022-12-17T10:27:32;39.08;;;14.85;;
6406;SDS011;3236;51.022;6.818;2022-12-17T10:30:24;32.30;;;14.35;;
6406;SDS011;3236;51.022;6.818;2022-12-17T10:33:10;35.65;;;15.63;;
6406;SDS011;3236;51.022;6.818;2022-12-17T10:36:04;39.85;;;15.55;;
6406;SDS011;3236;51.022;6.818;2022-12-17T10:39:02;32.53;;;13.73;;
6406;SDS011;3236;51.022;6.818;2022-12-17T10:41:47;26.38;;;12.45;;
6406;SDS011;3236;51.022;6.818;2022-12-17T10:44:33;32.13;;;13.38;;
6406;SDS011;3236;51.022;6.818;2022-12-17T10:47:23;31.85;;;14.75;;
6406;SDS011;3236;51.022;6.818;2022-12-17T10:50:10;32.95;;;15.00;;
6406;SDS011;3236;51.022;6.818;2022-12-17T10:52:55;34.92;;;13.40;;
6406;SDS011;3236;51.022;6.818;2022-12-17T10:55:47;25.90;;;11.25;;
6406;SDS011;3236;51.022;6.818;2022-12-17T10:58:35;29.65;;;12.93;;
6406;SDS011;3236;51.022;6.818;2022-12-17T11:01:23;31.98;;;14.75;;
6406;SDS011;3236;51.022;6.818;2022-12-17T11:04:24;32.20;;;14.88;;
6406;SDS011;3236;51.022;6.818;2022-12-17T11:07:11;36.78;;;14.60;;
6406;SDS011;3236;51.022;6.818;2022-12-17T11:10:00;28.92;;;13.10;;
6406;SDS011;3236;51.022;6.818;2022-12-17T11:12:48;30.35;;;13.52;;
6406;SDS011;3236;51.022;6.818;2022-12-17T11:15:38;31.52;;;14.45;;
6406;SDS011;3236;51.022;6.818;2022-12-17T11:18:28;36.00;;;15.63;;
6406;SDS011;3236;51.022;6.818;2022-12-17T11:21:18;26.80;;;13.27;;
6406;SDS011;3236;51.022;6.818;2022-12-17T11:24:09;33.13;;;13.55;;
6406;SDS011;3236;51.022;6.818;2022-12-17T11:26:57;29.48;;;13.23;;
6406;SDS011;3236;51.022;6.818;2022-12-17T11:29:44;29.98;;;13.18;;
6406;SDS011;3236;51.022;6.818;2022-12-17T11:32:43;29.23;;;13.77;;
6406;SDS011;3236;51.022;6.818;2022-12-17T11:35:43;24.27;;;12.45;;
6406;SDS011;3236;51.022;6.818;2022-12-17T11:38:38;24.48;;;11.63;;
6406;SDS011;3236;51.022;6.818;2022-12-17T11:41:34;27.92;;;12.30;;
6406;SDS011;3236;51.022;6.818;2022-12-17T11:44:31;36.42;;;14.23;;
6406;SDS011;3236;51.022;6.818;2022-12-17T11:47:28;29.58;;;13.48;;
6406;SDS011;3236;51.022;6.818;2022-12-17T11:50:24;27.08;;;13.05;;
6406;SDS011;3236;51.022;6.818;2022-12-17T11:53:17;28.88;;;13.55;;
6406;SDS011;3236;51.022;6.818;2022-12-17T11:56:20;35.33;;;15.38;;
6406;SDS011;3236;51.022;6.818;2022-12-17T11:59:12;51.33;;;21.48;;
6406;SDS011;3236;51.022;6.818;2022-12-17T12:02:05;62.13;;;22.52;;
6406;SDS011;3236;51.022;6.818;2022-12-17T12:05:04;30.77;;;14.38;;
6406;SDS011;3236;51.022;6.818;2022-12-17T12:08:02;32.50;;;15.98;;
6406;SDS011;3236;51.022;6.818;2022-12-17T12:10:57;30.42;;;14.80;;
6406;SDS011;3236;51.022;6.818;2022-12-17T12:13:56;27.20;;;14.38;;
6406;SDS011;3236;51.022;6.818;2022-12-17T12:17:07;30.13;;;14.55;;
6406;SDS011;3236;51.022;6.818;2022-12-17T12:20:06;34.20;;;15.45;;
6406;SDS011;3236;51.022;6.818;2022-12-17T12:23:21;26.35;;;13.95;;
6406;SDS011;3236;51.022;6.818;2022-12-17T12:26:13;31.98;;;15.38;;
6406;SDS011;3236;51.022;6.818;2022-12-17T12:29:01;28.90;;;14.10;;
6406;SDS011;3236;51.022;6.818;2022-12-17T12:32:39;26.27;;;14.40;;
6406;SDS011;3236;51.022;6.818;2022-12-17T12:35:29;27.02;;;14.75;;
6406;SDS011;3236;51.022;6.818;2022-12-17T12:38:17;28.20;;;15.05;;
6406;SDS011;3236;51.022;6.818;2022-12-17T12:41:10;31.48;;;14.45;;
6406;SDS011;3236;51.022;6.818;2022-12-17T12:43:56;22.05;;;13.95;;
6406;SDS011;3236;51.022;6.818;2022-12-17T12:46:45;34.90;;;17.10;;
6406;SDS011;3236;51.022;6.818;2022-12-17T12:49:39;27.30;;;14.05;;
6406;SDS011;3236;51.022;6.818;2022-12-17T12:52:28;33.83;;;14.10;;
6406;SDS011;3236;51.022;6.818;2022-12-17T12:55:21;27.33;;;14.07;;
6406;SDS011;3236;51.022;6.818;2022-12-17T12:58:22;26.40;;;14.63;;
6406;SDS011;3236;51.022;6.818;2022-12-17T13:01:08;32.50;;;14.60;;
6406;SDS011;3236;51.022;6.818;2022-12-17T13:03:54;27.33;;;14.93;;
6406;SDS011;3236;51.022;6.818;2022-12-17T13:06:43;28.13;;;14.50;;
6406;SDS011;3236;51.022;6.818;2022-12-17T13:15:14;29.80;;;15.48;;
6406;SDS011;3236;51.022;6.818;2022-12-17T13:17:53;27.60;;;15.05;;
6406;SDS011;3236;51.022;6.818;2022-12-17T13:20:28;27.50;;;15.50;;
6406;SDS011;3236;51.022;6.818;2022-12-17T13:23:11;28.50;;;15.02;;
6406;SDS011;3236;51.022;6.818;2022-12-17T13:29:00;28.83;;;15.73;;
6406;SDS011;3236;51.022;6.818;2022-12-17T13:31:42;27.77;;;14.95;;
6406;SDS011;3236;51.022;6.818;2022-12-17T13:34:14;27.90;;;15.98;;
6406;SDS011;3236;51.022;6.818;2022-12-17T13:36:50;30.38;;;15.55;;
6406;SDS011;3236;51.022;6.818;2022-12-17T13:39:31;29.80;;;16.38;;
6406;SDS011;3236;51.022;6.818;2022-12-17T13:42:04;29.85;;;15.15;;
6406;SDS011;3236;51.022;6.818;2022-12-17T13:44:42;28.88;;;15.43;;
6406;SDS011;3236;51.022;6.818;2022-12-17T13:47:18;32.03;;;15.25;;
6406;SDS011;3236;51.022;6.818;2022-12-17T13:49:49;40.25;;;18.27;;
6406;SDS011;3236;51.022;6.818;2022-12-17T13:52:19;34.75;;;17.05;;
6406;SDS011;3236;51.022;6.818;2022-12-17T13:54:53;34.08;;;16.17;;
6406;SDS011;3236;51.022;6.818;2022-12-17T13:57:22;34.40;;;16.77;;
6406;SDS011;3236;51.022;6.818;2022-12-17T14:02:35;28.23;;;15.00;;
6406;SDS011;3236;51.022;6.818;2022-12-17T14:05:20;32.33;;;14.98;;
6406;SDS011;3236;51.022;6.818;2022-12-17T14:07:50;34.00;;;15.55;;
6406;SDS011;3236;51.022;6.818;2022-12-17T14:10:22;32.10;;;15.73;;
6406;SDS011;3236;51.022;6.818;2022-12-17T14:12:51;31.08;;;14.85;;
6406;SDS011;3236;51.022;6.818;2022-12-17T14:15:25;28.27;;;15.02;;
6406;SDS011;3236;51.022;6.818;2022-12-17T14:17:54;30.92;;;15.25;;
6406;SDS011;3236;51.022;6.818;2022-12-17T14:20:24;28.40;;;15.80;;
6406;SDS011;3236;51.022;6.818;2022-12-17T14:22:52;35.97;;;17.13;;
6406;SDS011;3236;51.022;6.818;2022-12-17T14:25:24;30.30;;;15.52;;
6406;SDS011;3236;51.022;6.818;2022-12-17T14:27:54;33.97;;;16.02;;
6406;SDS011;3236;51.022;6.818;2022-12-17T14:30:32;37.03;;;15.90;;
6406;SDS011;3236;51.022;6.818;2022-12-17T14:33:03;30.23;;;14.80;;
6406;SDS011;3236;51.022;6.818;2022-12-17T14:35:31;35.50;;;15.30;;
6406;SDS011;3236;51.022;6.818;2022-12-17T14:38:01;32.03;;;15.55;;
6406;SDS011;3236;51.022;6.818;2022-12-17T14:40:30;35.17;;;16.33;;
6406;SDS011;3236;51.022;6.818;2022-12-17T14:42:58;31.35;;;13.98;;
6406;SDS011;3236;51.022;6.818;2022-12-17T14:45:27;35.67;;;14.90;;
6406;SDS011;3236;51.022;6.818;2022-12-17T14:47:55;32.42;;;14.50;;
6406;SDS011;3236;51.022;6.818;2022-12-17T14:50:28;31.92;;;14.05;;
6406;SDS011;3236;51.022;6.818;2022-12-17T14:52:57;37.53;;;15.38;;
6406;SDS011;3236;51.022;6.818;2022-12-17T14:55:27;29.48;;;15.18;;
6406;SDS011;3236;51.022;6.818;2022-12-17T14:58:06;28.20;;;14.15;;
6406;SDS011;3236;51.022;6.818;2022-12-17T15:00:44;29.27;;;13.50;;
6406;SDS011;3236;51.022;6.818;2022-12-17T15:03:17;28.63;;;13.20;;
6406;SDS011;3236;51.022;6.818;2022-12-17T15:05:47;29.65;;;12.88;;
6406;SDS011;3236;51.022;6.818;2022-12-17T15:08:18;31.83;;;13.40;;
6406;SDS011;3236;51.022;6.818;2022-12-17T15:10:55;28.75;;;12.90;;
6406;SDS011;3236;51.022;6.818;2022-12-17T15:13:22;33.83;;;13.82;;
6406;SDS011;3236;51.022;6.818;2022-12-17T15:15:49;30.92;;;13.93;;
6406;SDS011;3236;51.022;6.818;2022-12-17T15:18:16;35.20;;;14.18;;
6406;SDS011;3236;51.022;6.818;2022-12-17T15:20:43;30.55;;;13.35;;
6406;SDS011;3236;51.022;6.818;2022-12-17T15:23:12;33.13;;;13.45;;
6406;SDS011;3236;51.022;6.818;2022-12-17T15:25:41;36.20;;;14.68;;
6406;SDS011;3236;51.022;6.818;2022-12-17T15:28:10;28.17;;;12.98;;
6406;SDS011;3236;51.022;6.818;2022-12-17T15:30:38;31.50;;;13.40;;
6406;SDS011;3236;51.022;6.818;2022-12-17T15:33:05;26.70;;;12.77;;
6406;SDS011;3236;51.022;6.818;2022-12-17T15:35:36;33.53;;;13.80;;
6406;SDS011;3236;51.022;6.818;2022-12-17T15:38:04;34.15;;;13.38;;
6406;SDS011;3236;51.022;6.818;2022-12-17T15:40:32;38.95;;;16.58;;
6406;SDS011;3236;51.022;6.818;2022-12-17T15:43:02;53.70;;;20.08;;
6406;SDS011;3236;51.022;6.818;2022-12-17T15:45:39;54.00;;;23.67;;
6406;SDS011;3236;51.022;6.818;2022-12-17T15:48:07;45.78;;;19.42;;
6406;SDS011;3236;51.022;6.818;2022-12-17T15:50:35;47.63;;;19.77;;
6406;SDS011;3236;51.022;6.818;2022-12-17T15:53:02;35.60;;;16.25;;
6406;SDS011;3236;51.022;6.818;2022-12-17T15:55:29;36.10;;;15.35;;
6406;SDS011;3236;51.022;6.818;2022-12-17T15:57:56;36.58;;;14.82;;
6406;SDS011;3236;51.022;6.818;2022-12-17T16:00:23;28.30;;;13.27;;
6406;SDS011;3236;51.022;6.818;2022-12-17T16:02:52;35.15;;;13.65;;
6406;SDS011;3236;51.022;6.818;2022-12-17T16:05:19;33.55;;;14.55;;
6406;SDS011;3236;51.022;6.818;2022-12-17T16:07:46;33.30;;;14.48;;
6406;SDS011;3236;51.022;6.818;2022-12-17T16:10:13;39.33;;;15.80;;
6406;SDS011;3236;51.022;6.818;2022-12-17T16:12:41;35.92;;;15.52;;
6406;SDS011;3236;51.022;6.818;2022-12-17T16:15:11;45.80;;;15.55;;
6406;SDS011;3236;51.022;6.818;2022-12-17T16:17:39;32.08;;;14.93;;
6406;SDS011;3236;51.022;6.818;2022-12-17T16:20:08;37.55;;;15.25;;
6406;SDS011;3236;51.022;6.818;2022-12-17T16:22:36;40.25;;;15.45;;
6406;SDS011;3236;51.022;6.818;2022-12-17T16:25:03;40.33;;;17.00;;
6406;SDS011;3236;51.022;6.818;2022-12-17T16:27:31;41.35;;;16.38;;
6406;SDS011;3236;51.022;6.818;2022-12-17T16:29:58;42.63;;;15.95;;
6406;SDS011;3236;51.022;6.818;2022-12-17T16:32:27;36.38;;;15.27;;
6406;SDS011;3236;51.022;6.818;2022-12-17T16:34:54;35.47;;;15.50;;
6406;SDS011;3236;51.022;6.818;2022-12-17T16:37:22;34.55;;;14.52;;
6406;SDS011;3236;51.022;6.818;2022-12-17T16:39:49;29.77;;;13.50;;
6406;SDS011;3236;51.022;6.818;2022-12-17T16:42:17;32.53;;;14.65;;
6406;SDS011;3236;51.022;6.818;2022-12-17T16:44:44;34.17;;;14.65;;